Time;durP1;ratioP1;P1;durP2;ratioP2;P2;SDS_P1;SDS_P2;PMS_P1;PMS_P2;Temp;Humidity;BMP_temperature;BMP_pressure;BME280_temperature;BME280_humidity;BME280_pressure;Samples;Min_cycle;Max_cycle;Signal;HPM_P1;HPM_P2
2023/01/02 00:02:12;;;;;;;10.80;4.30;;;14.90;99.90;;;;;;6199283;23;20441;-85
2023/01/02 00:04:59;;;;;;;;;;;;;;;;;;;;;
2023/01/02 00:07:30;;;;;;;6.33;2.70;;;15.00;99.90;;;;;;6197372;23;20409;-86
2023/01/02 00:09:59;;;;;;;5.20;2.63;;;15.10;99.50;;;;;;6203644;23;20505;-86
2023/01/02 00:12:30;;;;;;;3.73;2.37;;;15.20;99.10;;;;;;6177922;23;20414;-86
2023/01/02 00:14:59;;;;;;;5.30;2.53;;;15.50;98.50;;;;;;6201954;23;20440;-87
2023/01/02 00:17:30;;;;;;;8.17;2.83;;;15.50;98.30;;;;;;6202897;23;20422;-86
2023/01/02 00:20:04;;;;;;;6.60;2.50;;;15.60;98.00;;;;;;6205202;23;20490;-86
2023/01/02 00:22:34;;;;;;;5.80;2.83;;;15.50;98.10;;;;;;6156768;23;20432;-88
2023/01/02 00:25:04;;;;;;;5.70;2.67;;;15.70;97.90;;;;;;6179749;23;20418;-85
2023/01/02 00:27:32;;;;;;;10.07;2.67;;;15.80;97.60;;;;;;6182138;23;20448;-87
2023/01/02 00:29:59;;;;;;;4.90;2.37;;;15.80;97.50;;;;;;6180843;23;20489;-86
2023/01/02 00:32:28;;;;;;;5.90;3.17;;;15.70;97.70;;;;;;6207463;23;20429;-86
2023/01/02 00:34:55;;;;;;;5.53;3.17;;;15.80;97.50;;;;;;6179797;23;20437;-88
2023/01/02 00:37:24;;;;;;;7.30;2.67;;;15.90;97.20;;;;;;6171219;23;20961;-87
2023/01/02 00:39:51;;;;;;;5.73;4.70;;;15.90;97.20;;;;;;6171841;23;20406;-87
2023/01/02 00:42:18;;;;;;;7.53;2.77;;;15.90;97.30;;;;;;6198569;23;20410;-86
2023/01/02 00:44:44;;;;;;;5.13;2.77;;;15.90;96.70;;;;;;6200713;23;20422;-87
2023/01/02 00:47:15;;;;;;;5.20;2.40;;;15.90;97.00;;;;;;6201502;23;20410;-87
2023/01/02 00:49:44;;;;;;;3.83;2.77;;;15.90;97.00;;;;;;6149644;23;20436;-87
2023/01/02 00:52:11;;;;;;;4.43;2.60;;;16.10;96.80;;;;;;6198840;23;20414;-87
2023/01/02 00:54:38;;;;;;;4.40;2.20;;;16.10;96.40;;;;;;6173508;23;20433;-85
2023/01/02 00:57:04;;;;;;;7.20;2.60;;;16.10;96.30;;;;;;6175760;23;20909;-87
2023/01/02 00:59:31;;;;;;;6.37;2.60;;;16.10;96.40;;;;;;6183765;22;20473;-89
2023/01/02 01:01:58;;;;;;;5.33;3.03;;;16.10;96.40;;;;;;6186765;22;20386;-89
2023/01/02 01:04:25;;;;;;;8.40;2.67;;;16.10;96.40;;;;;;6187278;22;20434;-88
2023/01/02 01:06:51;;;;;;;5.97;2.70;;;16.10;96.30;;;;;;6186740;23;20394;-88
2023/01/02 01:09:18;;;;;;;8.43;2.57;;;16.10;96.40;;;;;;6212904;22;20405;-89
2023/01/02 01:11:45;;;;;;;4.87;2.60;;;16.10;96.20;;;;;;6187107;23;20429;-88
2023/01/02 01:14:12;;;;;;;6.33;2.50;;;16.20;96.40;;;;;;6179548;23;20422;-87
2023/01/02 01:16:39;;;;;;;6.37;2.47;;;16.00;96.10;;;;;;6170249;23;20414;-87
2023/01/02 01:19:06;;;;;;;10.60;2.63;;;15.90;96.40;;;;;;6182119;23;20452;-87
2023/01/02 01:21:34;;;;;;;4.37;2.30;;;15.90;96.50;;;;;;6211120;22;20412;-89
2023/01/02 01:24:01;;;;;;;5.90;2.47;;;16.10;96.20;;;;;;6172815;23;20472;-87
2023/01/02 01:26:27;;;;;;;4.70;2.90;;;16.20;95.80;;;;;;6170171;23;20413;-86
2023/01/02 01:28:57;;;;;;;3.83;2.50;;;16.20;95.60;;;;;;6169102;23;20429;-86
2023/01/02 01:31:24;;;;;;;5.43;2.93;;;16.10;96.00;;;;;;6196163;23;20941;-87
2023/01/02 01:33:51;;;;;;;10.53;3.03;;;15.90;96.00;;;;;;6200236;22;20477;-89
2023/01/02 01:36:22;;;;;;;7.93;2.80;;;15.90;96.00;;;;;;6205569;22;20472;-85
2023/01/02 01:38:58;;;;;;;4.23;2.80;;;16.00;95.90;;;;;;6145041;23;20436;-87
2023/01/02 01:41:25;;;;;;;6.00;2.10;;;16.00;95.50;;;;;;6165253;23;20449;-86
2023/01/02 01:44:00;;;;;;;8.70;2.77;;;16.10;95.50;;;;;;6190565;23;20437;-86
2023/01/02 01:46:44;;;;;;;6.30;2.20;;;16.10;95.30;;;;;;6165930;23;20390;-86
2023/01/02 01:49:16;;;;;;;6.57;2.50;;;16.00;95.10;;;;;;6160145;23;20403;-87
2023/01/02 01:51:50;;;;;;;3.20;2.03;;;16.10;95.30;;;;;;6168981;23;21150;-86
2023/01/02 01:54:23;;;;;;;6.00;2.70;;;16.10;95.20;;;;;;6165178;23;20497;-86
2023/01/02 01:56:57;;;;;;;6.57;2.57;;;16.20;95.10;;;;;;6190849;23;20420;-86
2023/01/02 01:59:26;;;;;;;4.57;2.70;;;16.20;94.70;;;;;;6164284;23;20468;-87
2023/01/02 02:01:54;;;;;;;5.00;2.70;;;16.10;94.90;;;;;;6192447;23;20405;-86
2023/01/02 02:04:29;;;;;;;4.20;2.20;;;16.10;94.80;;;;;;6165674;23;20433;-86
2023/01/02 02:06:56;;;;;;;3.23;2.70;;;16.20;94.60;;;;;;6165582;23;20447;-87
2023/01/02 02:09:34;;;;;;;6.97;2.13;;;16.20;94.50;;;;;;6163643;23;20420;-85
2023/01/02 02:12:03;;;;;;;6.60;2.97;;;16.30;94.30;;;;;;6167447;23;20401;-86
2023/01/02 02:14:30;;;;;;;5.30;2.30;;;16.10;94.50;;;;;;6164685;23;20434;-85
2023/01/02 02:17:26;;;;;;;4.43;2.17;;;16.20;94.40;;;;;;6191092;23;20406;-87
2023/01/02 02:20:17;;;;;;;8.33;2.70;;;16.20;94.50;;;;;;6192894;23;20890;-87
2023/01/02 02:23:00;;;;;;;4.33;2.47;;;16.30;94.30;;;;;;6168340;23;20406;-87
2023/01/02 02:26:01;;;;;;;4.87;2.13;;;16.30;94.10;;;;;;6165268;23;20865;-87
2023/01/02 02:28:41;;;;;;;6.80;2.50;;;16.20;94.20;;;;;;6159479;23;20464;-87
2023/01/02 02:31:17;;;;;;;5.40;2.33;;;16.30;94.00;;;;;;6189311;23;20731;-87
2023/01/02 02:34:03;;;;;;;5.70;2.87;;;16.30;94.00;;;;;;6161714;23;20516;-86
2023/01/02 02:36:49;;;;;;;6.17;2.97;;;16.20;94.00;;;;;;6187190;23;20410;-87
2023/01/02 02:39:40;;;;;;;4.97;3.07;;;16.20;93.90;;;;;;6178026;22;20429;-88
2023/01/02 02:42:29;;;;;;;4.80;2.60;;;16.20;94.00;;;;;;6162115;23;20751;-85
2023/01/02 02:45:02;;;;;;;4.47;2.57;;;16.30;93.90;;;;;;6187427;23;20430;-86
2023/01/02 02:47:55;;;;;;;4.17;2.30;;;16.20;93.70;;;;;;6169692;23;20428;-85
2023/01/02 02:50:28;;;;;;;4.90;2.90;;;16.20;93.90;;;;;;6166683;23;20501;-86
2023/01/02 02:53:21;;;;;;;7.80;2.50;;;16.20;93.70;;;;;;6166205;23;20529;-85
2023/01/02 02:55:52;;;;;;;5.97;2.23;;;16.10;93.80;;;;;;6166736;23;20414;-86
2023/01/02 02:58:22;;;;;;;3.47;2.83;;;16.10;94.00;;;;;;6165994;23;20438;-85
2023/01/02 03:00:49;;;;;;;6.20;2.43;;;16.20;93.70;;;;;;6166546;23;20418;-87
2023/01/02 03:03:21;;;;;;;8.43;2.80;;;16.20;93.50;;;;;;6166303;23;20421;-88
2023/01/02 03:06:22;;;;;;;4.90;2.30;;;16.20;93.50;;;;;;6161072;23;20421;-86
2023/01/02 03:09:00;;;;;;;8.37;3.13;;;16.20;93.50;;;;;;6194020;23;20408;-85
2023/01/02 03:11:54;;;;;;;3.23;2.23;;;16.20;93.40;;;;;;6166224;23;20416;-86
2023/01/02 03:14:32;;;;;;;4.53;2.30;;;16.10;93.50;;;;;;6162634;23;20513;-87
2023/01/02 03:17:10;;;;;;;5.43;2.53;;;16.10;93.70;;;;;;6167623;23;20388;-86
2023/01/02 03:19:45;;;;;;;5.67;2.53;;;16.20;93.60;;;;;;6194604;23;20472;-87
2023/01/02 03:22:22;;;;;;;10.57;2.73;;;16.10;93.70;;;;;;6166813;23;20497;-85
2023/01/02 03:24:54;;;;;;;5.40;2.53;;;16.10;93.80;;;;;;6193174;23;20445;-86
2023/01/02 03:27:30;;;;;;;5.43;2.67;;;16.10;93.60;;;;;;6165590;23;20405;-85
2023/01/02 03:30:03;;;;;;;3.53;2.53;;;16.10;93.70;;;;;;6144743;23;20829;-87
2023/01/02 03:32:38;;;;;;;7.13;2.80;;;16.20;93.60;;;;;;6193577;23;20394;-87
2023/01/02 03:35:11;;;;;;;7.17;2.77;;;16.10;93.50;;;;;;6168112;23;20503;-87
2023/01/02 03:37:47;;;;;;;7.00;2.80;;;16.10;93.50;;;;;;6168775;23;20398;-86
2023/01/02 03:40:24;;;;;;;4.40;2.17;;;16.10;93.50;;;;;;6200241;23;20450;-84
2023/01/02 03:43:24;;;;;;;4.50;2.50;;;16.20;93.40;;;;;;6173758;23;20434;-86
2023/01/02 03:46:04;;;;;;;6.73;3.00;;;16.10;93.40;;;;;;6171146;23;20413;-87
2023/01/02 03:48:42;;;;;;;3.23;2.47;;;16.10;93.20;;;;;;6196439;23;20406;-86
2023/01/02 03:51:10;;;;;;;5.47;2.10;;;16.20;93.00;;;;;;6171282;23;20405;-86
2023/01/02 03:53:39;;;;;;;6.17;2.70;;;16.20;93.00;;;;;;6198227;23;20505;-85
2023/01/02 03:56:22;;;;;;;7.50;3.40;;;16.20;93.00;;;;;;6171627;23;20490;-86
2023/01/02 03:59:26;;;;;;;4.70;2.10;;;16.20;93.00;;;;;;6170806;23;20430;-86
2023/01/02 04:02:20;;;;;;;4.47;2.50;;;16.10;93.00;;;;;;6169003;23;20412;-86
2023/01/02 04:04:55;;;;;;;5.27;2.40;;;16.10;93.10;;;;;;6193861;23;20481;-86
2023/01/02 04:07:38;;;;;;;3.20;2.80;;;16.10;93.30;;;;;;6175973;23;20390;-86
2023/01/02 04:10:07;;;;;;;5.57;2.27;;;15.90;93.40;;;;;;6195188;22;20438;-88
2023/01/02 04:12:38;;;;;;;5.73;2.20;;;16.00;93.50;;;;;;6201641;23;20405;-88
2023/01/02 04:15:15;;;;;;;6.93;2.83;;;16.20;93.20;;;;;;6195831;23;20751;-87
2023/01/02 04:18:05;;;;;;;5.60;2.70;;;16.10;93.00;;;;;;6169589;23;20410;-86
2023/01/02 04:20:37;;;;;;;3.20;2.20;;;16.10;93.10;;;;;;6178833;23;20400;-87
2023/01/02 04:23:14;;;;;;;6.63;2.67;;;16.20;92.90;;;;;;6182859;23;20478;-85
2023/01/02 04:25:53;;;;;;;4.93;2.47;;;16.20;92.90;;;;;;6182149;23;20403;-87
2023/01/02 04:28:31;;;;;;;6.50;2.37;;;16.10;92.90;;;;;;6193672;23;20418;-86
2023/01/02 04:31:12;;;;;;;5.80;3.17;;;16.10;92.80;;;;;;6196983;23;20408;-86
2023/01/02 04:34:00;;;;;;;4.27;3.03;;;16.10;92.80;;;;;;6193770;23;20544;-86
2023/01/02 04:36:27;;;;;;;4.93;2.00;;;16.10;92.90;;;;;;6194445;23;20405;-86
2023/01/02 04:38:55;;;;;;;5.17;2.97;;;16.10;92.50;;;;;;6166452;23;20430;-87
2023/01/02 04:41:29;;;;;;;5.27;2.73;;;16.20;92.50;;;;;;6167700;23;20398;-85
2023/01/02 04:43:56;;;;;;;7.63;2.27;;;16.10;92.40;;;;;;6200357;22;20429;-87
2023/01/02 04:46:26;;;;;;;5.10;2.70;;;16.10;92.50;;;;;;6199124;22;20436;-84
2023/01/02 04:48:53;;;;;;;3.40;2.10;;;16.10;92.50;;;;;;6165440;23;20812;-84
2023/01/02 04:51:21;;;;;;;5.90;2.53;;;16.10;92.40;;;;;;6162658;23;20482;-84
2023/01/02 04:53:51;;;;;;;5.17;2.30;;;16.10;92.40;;;;;;6161877;23;20434;-84
2023/01/02 04:56:19;;;;;;;5.20;2.40;;;16.10;92.20;;;;;;6162710;23;20390;-83
2023/01/02 04:58:46;;;;;;;7.17;3.30;;;16.10;92.30;;;;;;6163071;23;20434;-84
2023/01/02 05:01:16;;;;;;;5.10;2.23;;;16.10;92.20;;;;;;6163030;23;20901;-87
2023/01/02 05:03:45;;;;;;;4.43;2.77;;;16.10;92.20;;;;;;6190213;23;20429;-85
2023/01/02 05:06:12;;;;;;;5.47;2.27;;;16.10;92.30;;;;;;6188738;23;20550;-84
2023/01/02 05:08:39;;;;;;;4.80;2.60;;;16.00;92.50;;;;;;6188997;23;20421;-85
2023/01/02 05:11:08;;;;;;;5.83;3.03;;;16.10;92.40;;;;;;6162644;23;20422;-86
2023/01/02 05:13:34;;;;;;;4.20;2.60;;;16.00;92.40;;;;;;6188173;23;20518;-85
2023/01/02 05:16:02;;;;;;;8.13;2.90;;;16.10;92.40;;;;;;6188569;23;20410;-86
2023/01/02 05:18:30;;;;;;;3.03;2.00;;;16.00;92.40;;;;;;6161601;23;20489;-85
2023/01/02 05:23:56;;;;;;;5.93;2.53;;;15.90;92.50;;;;;;6187609;23;20425;-87
2023/01/02 05:26:23;;;;;;;5.67;2.50;;;15.90;92.60;;;;;;6161812;23;20402;-86
2023/01/02 05:28:54;;;;;;;5.40;3.30;;;16.00;92.60;;;;;;6187991;23;20449;-85
2023/01/02 05:31:22;;;;;;;5.73;2.60;;;16.00;92.70;;;;;;6186708;23;20410;-86
2023/01/02 05:33:53;;;;;;;3.40;2.37;;;15.90;92.80;;;;;;6189046;23;20491;-84
2023/01/02 05:36:21;;;;;;;7.10;2.90;;;15.90;92.80;;;;;;6187603;23;20414;-85
2023/01/02 05:38:48;;;;;;;6.03;2.60;;;15.90;92.80;;;;;;6188447;23;20442;-85
2023/01/02 05:41:15;;;;;;;3.60;2.57;;;15.90;92.70;;;;;;6188170;23;20410;-85
2023/01/02 05:43:42;;;;;;;8.20;3.00;;;15.90;92.90;;;;;;6162807;23;20426;-86
2023/01/02 05:46:14;;;;;;;10.40;2.80;;;15.90;92.90;;;;;;6164238;23;20410;-87
2023/01/02 05:48:42;;;;;;;3.97;2.30;;;15.90;92.80;;;;;;6165698;23;20426;-85
2023/01/02 05:51:11;;;;;;;6.53;3.03;;;15.90;92.80;;;;;;6193186;23;20855;-85
2023/01/02 05:53:41;;;;;;;5.00;3.40;;;15.80;92.90;;;;;;6193252;23;20438;-84
2023/01/02 05:56:12;;;;;;;6.53;2.40;;;15.90;93.10;;;;;;6167747;23;20394;-86
2023/01/02 05:58:43;;;;;;;6.50;2.80;;;15.90;93.10;;;;;;6167685;23;20433;-84
2023/01/02 06:01:15;;;;;;;4.83;2.30;;;15.90;93.10;;;;;;6161123;23;20819;-86
2023/01/02 06:03:46;;;;;;;7.53;2.83;;;15.70;93.30;;;;;;6162303;23;20433;-84
2023/01/02 06:06:14;;;;;;;7.83;2.60;;;15.70;93.60;;;;;;6162451;23;20416;-86
2023/01/02 06:08:42;;;;;;;7.83;2.60;;;15.80;93.50;;;;;;6192097;23;20428;-86
2023/01/02 06:11:11;;;;;;;4.17;2.63;;;15.80;93.40;;;;;;6185552;23;20418;-86
2023/01/02 06:13:38;;;;;;;4.60;2.67;;;15.70;93.80;;;;;;6185233;23;21023;-85
2023/01/02 06:16:07;;;;;;;6.90;2.20;;;15.70;93.80;;;;;;6183291;23;20410;-86
2023/01/02 06:18:35;;;;;;;4.83;2.60;;;15.70;93.70;;;;;;6158479;23;20925;-86
2023/01/02 06:21:05;;;;;;;8.70;2.93;;;15.70;93.80;;;;;;6159159;23;20421;-87
2023/01/02 06:23:32;;;;;;;6.40;1.93;;;15.70;93.90;;;;;;6165175;23;20969;-85
2023/01/02 06:26:08;;;;;;;8.53;2.93;;;15.80;94.00;;;;;;6193352;23;20409;-85
2023/01/02 06:28:34;;;;;;;4.70;2.90;;;15.70;94.00;;;;;;6194818;23;20414;-85
2023/01/02 06:31:04;;;;;;;4.43;2.77;;;15.80;94.10;;;;;;6166694;23;20401;-85
2023/01/02 06:33:31;;;;;;;3.97;2.70;;;15.70;94.10;;;;;;6166168;23;20421;-85
2023/01/02 06:36:07;;;;;;;5.83;2.57;;;15.70;94.30;;;;;;6166442;23;20402;-85
2023/01/02 06:38:35;;;;;;;7.27;3.53;;;15.80;94.20;;;;;;6198265;23;20414;-87
2023/01/02 06:41:03;;;;;;;4.80;2.90;;;15.70;94.30;;;;;;6203543;23;20430;-84
2023/01/02 06:43:30;;;;;;;5.67;2.60;;;15.70;94.40;;;;;;6186127;23;20443;-85
2023/01/02 06:46:03;;;;;;;9.97;3.67;;;15.60;94.40;;;;;;6190779;23;20420;-85
2023/01/02 06:48:33;;;;;;;9.70;3.17;;;15.50;94.60;;;;;;6194011;23;20418;-87
2023/01/02 06:51:07;;;;;;;6.70;2.63;;;15.60;95.00;;;;;;6205316;22;20429;-84
2023/01/02 06:53:36;;;;;;;10.30;2.77;;;15.70;94.60;;;;;;6168908;23;20425;-84
2023/01/02 06:56:04;;;;;;;4.80;2.47;;;15.70;94.60;;;;;;6174122;23;20420;-85
2023/01/02 06:58:32;;;;;;;5.80;3.07;;;15.70;94.50;;;;;;6211812;23;20410;-88
2023/01/02 07:01:03;;;;;;;5.60;2.80;;;15.60;94.60;;;;;;6180593;23;20414;-87
2023/01/02 07:03:30;;;;;;;4.07;3.20;;;15.70;94.60;;;;;;6196803;23;20837;-86
2023/01/02 07:06:08;;;;;;;10.13;2.87;;;15.60;94.70;;;;;;6170486;23;20417;-86
2023/01/02 07:08:35;;;;;;;7.70;2.73;;;15.60;94.90;;;;;;6168468;23;20401;-86
2023/01/02 07:11:16;;;;;;;6.33;2.93;;;15.70;94.70;;;;;;6192374;23;20447;-85
2023/01/02 07:13:43;;;;;;;5.00;2.13;;;15.70;94.70;;;;;;6190242;23;20520;-85
2023/01/02 07:16:13;;;;;;;2.83;2.33;;;15.70;94.80;;;;;;6165341;23;20767;-86
2023/01/02 07:18:40;;;;;;;4.60;2.37;;;15.60;94.90;;;;;;6178446;22;20417;-88
2023/01/02 07:21:12;;;;;;;5.30;2.77;;;15.70;95.10;;;;;;6213867;22;20429;-87
2023/01/02 07:23:40;;;;;;;5.40;2.50;;;15.70;95.10;;;;;;6188817;22;20418;-88
2023/01/02 07:26:08;;;;;;;2.83;2.13;;;15.70;95.20;;;;;;6188183;22;20464;-87
2023/01/02 07:28:35;;;;;;;2.67;2.20;;;15.70;95.30;;;;;;6213867;22;20474;-87
2023/01/02 07:31:05;;;;;;;6.60;2.97;;;15.60;95.40;;;;;;6198701;23;20505;-86
2023/01/02 07:33:33;;;;;;;5.80;2.57;;;15.60;95.50;;;;;;6168171;23;20957;-86
2023/01/02 07:36:05;;;;;;;3.90;2.17;;;15.30;95.70;;;;;;6201550;23;20406;-87
2023/01/02 07:38:33;;;;;;;6.50;2.40;;;15.40;96.10;;;;;;6186630;23;20410;-88
2023/01/02 07:40:59;;;;;;;4.47;2.17;;;15.60;95.90;;;;;;6209810;23;20458;-87
2023/01/02 07:43:29;;;;;;;5.10;2.40;;;15.60;95.90;;;;;;6185248;23;20418;-89
2023/01/02 07:46:03;;;;;;;4.77;2.40;;;15.60;95.90;;;;;;6202261;22;20420;-86
2023/01/02 07:48:30;;;;;;;3.40;2.47;;;15.60;95.80;;;;;;6192193;23;20406;-86
2023/01/02 07:51:02;;;;;;;5.80;2.43;;;15.60;95.90;;;;;;6165345;23;20761;-87
2023/01/02 07:53:29;;;;;;;4.13;2.40;;;15.50;95.90;;;;;;6191112;23;20484;-86
2023/01/02 07:55:58;;;;;;;8.50;2.63;;;15.50;96.10;;;;;;6165034;23;20428;-86
2023/01/02 07:58:25;;;;;;;6.37;2.57;;;15.50;96.20;;;;;;6191629;23;20410;-86
2023/01/02 08:00:53;;;;;;;7.13;2.87;;;15.50;96.20;;;;;;6188561;23;20437;-86
2023/01/02 08:03:24;;;;;;;4.27;2.63;;;15.50;96.20;;;;;;6163063;23;20436;-87
2023/01/02 08:05:51;;;;;;;3.37;2.23;;;15.50;96.40;;;;;;6190475;23;20421;-87
2023/01/02 08:08:18;;;;;;;4.30;2.47;;;15.60;96.20;;;;;;6190247;23;20406;-86
2023/01/02 08:10:46;;;;;;;5.10;2.40;;;15.50;96.10;;;;;;6164514;23;20934;-85
2023/01/02 08:13:13;;;;;;;4.53;2.60;;;15.50;96.40;;;;;;6190019;23;20409;-84
2023/01/02 08:15:40;;;;;;;4.93;2.17;;;15.50;96.60;;;;;;6162500;23;20418;-85
2023/01/02 08:18:06;;;;;;;5.67;3.00;;;15.60;96.10;;;;;;6163752;23;20420;-86
2023/01/02 08:20:33;;;;;;;3.83;2.30;;;15.50;96.20;;;;;;6168134;23;20507;-86
2023/01/02 08:23:00;;;;;;;2.93;2.10;;;15.40;96.30;;;;;;6192599;23;20421;-87
2023/01/02 08:25:27;;;;;;;8.87;2.57;;;15.10;96.70;;;;;;6166005;23;20837;-86
2023/01/02 08:27:54;;;;;;;6.67;2.87;;;15.30;97.70;;;;;;6166478;23;20398;-86
2023/01/02 08:30:21;;;;;;;6.20;2.43;;;15.30;97.70;;;;;;6194186;23;20477;-87
2023/01/02 08:32:47;;;;;;;3.47;2.30;;;15.10;98.40;;;;;;6172635;23;20486;-87
2023/01/02 08:35:14;;;;;;;5.37;2.87;;;15.10;99.10;;;;;;6192931;23;20989;-87
2023/01/02 08:37:41;;;;;;;5.57;2.70;;;15.00;99.90;;;;;;6190580;23;20478;-86
2023/01/02 08:40:14;;;;;;;8.20;5.57;;;14.80;99.90;;;;;;6189959;23;20460;-86
2023/01/02 08:42:42;;;;;;;5.47;3.17;;;14.80;99.90;;;;;;6163315;23;20410;-86
2023/01/02 08:45:09;;;;;;;10.73;4.30;;;15.00;99.90;;;;;;6163850;23;20422;-86
2023/01/02 08:47:36;;;;;;;4.90;2.60;;;15.20;99.90;;;;;;6163635;23;20406;-86
2023/01/02 08:50:03;;;;;;;6.63;3.33;;;14.90;99.90;;;;;;6164487;23;20414;-86
2023/01/02 08:52:30;;;;;;;5.03;2.70;;;14.90;99.90;;;;;;6164293;23;20428;-87
2023/01/02 08:54:59;;;;;;;5.27;2.60;;;14.90;99.90;;;;;;6200155;23;20430;-89
2023/01/02 08:57:26;;;;;;;7.37;3.30;;;14.70;99.90;;;;;;6171535;23;20750;-85
2023/01/02 08:59:53;;;;;;;3.40;2.33;;;14.70;99.90;;;;;;6188191;23;20442;-86
2023/01/02 09:02:20;;;;;;;4.37;2.43;;;14.70;99.90;;;;;;6160940;23;20422;-86
2023/01/02 09:04:47;;;;;;;5.80;2.53;;;14.80;99.90;;;;;;6189329;23;20509;-85
2023/01/02 09:07:14;;;;;;;3.00;2.70;;;14.90;99.90;;;;;;6162551;23;21037;-86
2023/01/02 09:09:41;;;;;;;3.20;2.37;;;14.70;99.90;;;;;;6190137;23;20418;-86
2023/01/02 09:12:08;;;;;;;7.90;2.80;;;14.60;99.90;;;;;;6165315;23;20398;-86
2023/01/02 09:14:35;;;;;;;3.23;2.20;;;14.50;99.90;;;;;;6165568;23;20491;-87
2023/01/02 09:17:01;;;;;;;3.53;2.37;;;14.50;99.90;;;;;;6190707;23;20748;-86
2023/01/02 09:19:29;;;;;;;3.37;1.80;;;14.50;99.90;;;;;;6164817;23;20518;-87
2023/01/02 09:21:56;;;;;;;3.57;1.80;;;14.50;99.90;;;;;;6191056;23;20413;-87
2023/01/02 09:24:22;;;;;;;3.80;1.87;;;14.50;99.90;;;;;;6189514;23;20442;-86
2023/01/02 09:26:49;;;;;;;3.30;1.90;;;14.30;99.90;;;;;;6190202;23;20468;-85
2023/01/02 09:29:16;;;;;;;1.80;1.47;;;14.20;99.90;;;;;;6191587;23;20434;-86
2023/01/02 09:31:43;;;;;;;2.10;1.67;;;14.10;99.90;;;;;;6162693;23;20791;-85
2023/01/02 09:34:11;;;;;;;2.30;1.30;;;14.10;99.90;;;;;;6163857;23;20434;-86
2023/01/02 09:36:38;;;;;;;2.67;1.10;;;14.10;99.90;;;;;;6190849;23;20412;-86
2023/01/02 09:39:05;;;;;;;2.73;1.50;;;14.10;99.90;;;;;;6188890;23;20406;-85
2023/01/02 09:41:43;;;;;;;3.47;2.80;;;14.20;99.90;;;;;;6165891;23;20497;-85
2023/01/02 09:44:43;;;;;;;1.50;1.40;;;14.10;99.90;;;;;;6164697;23;20448;-87
2023/01/02 09:47:10;;;;;;;2.73;1.50;;;14.50;99.90;;;;;;6183790;23;20432;-87
2023/01/02 09:49:48;;;;;;;1.67;1.30;;;14.30;99.90;;;;;;6179273;23;20438;-88
2023/01/02 09:52:20;;;;;;;2.00;1.50;;;14.30;99.90;;;;;;6191772;23;20449;-87
2023/01/02 09:54:47;;;;;;;3.23;1.40;;;14.60;99.90;;;;;;6193033;23;20433;-86
2023/01/02 09:57:14;;;;;;;3.20;1.50;;;14.60;99.90;;;;;;6164845;23;20417;-86
2023/01/02 10:00:03;;;;;;;1.83;1.40;;;14.40;99.90;;;;;;6166862;23;21291;-86
2023/01/02 10:02:59;;;;;;;1.53;1.30;;;14.30;99.90;;;;;;6191861;23;20410;-86
2023/01/02 10:06:09;;;;;;;2.23;1.30;;;14.30;99.90;;;;;;6167408;23;20750;-87
2023/01/02 10:08:42;;;;;;;1.83;1.40;;;14.20;99.90;;;;;;6157240;23;20860;-87
2023/01/02 10:11:32;;;;;;;1.77;1.67;;;14.30;99.90;;;;;;6165427;23;20949;-86
2023/01/02 10:14:03;;;;;;;3.03;1.40;;;14.20;99.90;;;;;;6152184;23;20433;-88
2023/01/02 10:16:51;;;;;;;1.97;1.70;;;14.10;99.90;;;;;;6207384;23;20437;-89
2023/01/02 10:19:41;;;;;;;1.80;1.63;;;14.00;99.90;;;;;;6183306;23;20402;-85
2023/01/02 10:22:12;;;;;;;1.77;1.63;;;14.00;99.90;;;;;;6204498;23;20440;-85
2023/01/02 10:24:44;;;;;;;2.63;1.47;;;14.10;99.90;;;;;;6194038;23;20429;-85
2023/01/02 10:27:16;;;;;;;2.60;1.20;;;14.00;99.90;;;;;;6191533;23;20383;-86
2023/01/02 10:29:52;;;;;;;1.10;1.00;;;14.00;99.90;;;;;;6192007;23;20408;-87
2023/01/02 10:32:21;;;;;;;1.77;1.30;;;13.90;99.90;;;;;;6197674;23;20382;-87
2023/01/02 10:35:10;;;;;;;1.10;1.00;;;13.80;99.90;;;;;;6168750;23;20500;-87
2023/01/02 10:37:36;;;;;;;1.07;0.97;;;13.70;99.90;;;;;;6188273;23;20454;-87
2023/01/02 10:40:04;;;;;;;2.20;1.10;;;13.70;99.90;;;;;;6187966;23;20500;-87
2023/01/02 10:42:32;;;;;;;1.33;1.07;;;13.70;99.90;;;;;;6161025;23;20406;-85
2023/01/02 10:45:00;;;;;;;1.37;1.00;;;13.70;99.90;;;;;;6189432;23;20501;-86
2023/01/02 10:47:37;;;;;;;1.13;1.03;;;13.70;99.90;;;;;;6162255;23;20405;-86
2023/01/02 10:50:09;;;;;;;1.03;1.03;;;13.70;99.90;;;;;;6191710;23;20414;-85
2023/01/02 10:52:48;;;;;;;1.27;1.17;;;13.70;99.90;;;;;;6192439;23;20428;-86
2023/01/02 10:55:42;;;;;;;1.40;1.30;;;13.70;99.90;;;;;;6165105;23;20468;-86
2023/01/02 10:58:24;;;;;;;3.10;1.47;;;13.60;99.90;;;;;;6160027;23;20917;-86
2023/01/02 11:01:06;;;;;;;1.17;1.07;;;13.60;99.90;;;;;;6197489;23;20465;-87
2023/01/02 11:03:33;;;;;;;1.50;1.40;;;13.60;99.90;;;;;;6174072;23;20485;-85
2023/01/02 11:06:00;;;;;;;1.60;1.50;;;13.60;99.90;;;;;;6192277;23;20417;-86
2023/01/02 11:09:13;;;;;;;1.27;1.17;;;13.60;99.90;;;;;;6169432;23;20413;-85
2023/01/02 11:11:54;;;;;;;7.53;1.50;;;13.50;99.90;;;;;;6190205;23;20426;-85
2023/01/02 11:14:30;;;;;;;1.80;1.43;;;13.50;99.90;;;;;;6165860;23;20425;-85
2023/01/02 11:17:07;;;;;;;1.83;1.73;;;13.50;99.90;;;;;;6192416;23;20400;-85
2023/01/02 11:19:45;;;;;;;2.40;1.43;;;13.50;99.90;;;;;;6191922;23;20405;-86
2023/01/02 11:22:17;;;;;;;2.23;2.00;;;13.50;99.90;;;;;;6191834;23;20401;-86
2023/01/02 11:25:03;;;;;;;2.30;1.70;;;13.50;99.90;;;;;;6193459;23;20436;-89
2023/01/02 11:27:36;;;;;;;3.80;3.17;;;13.50;99.90;;;;;;6168333;23;20406;-87
2023/01/02 11:30:05;;;;;;;1.60;1.50;;;13.50;99.90;;;;;;6167845;23;20394;-86
2023/01/02 11:32:38;;;;;;;2.40;1.33;;;13.40;99.90;;;;;;6194209;23;20862;-85
2023/01/02 11:35:32;;;;;;;2.20;1.67;;;13.40;99.90;;;;;;6167843;23;20426;-86
2023/01/02 11:38:00;;;;;;;1.77;1.67;;;13.40;99.90;;;;;;6194476;23;20409;-85
2023/01/02 11:40:30;;;;;;;1.77;1.67;;;13.50;99.90;;;;;;6193621;23;20449;-86
2023/01/02 11:45:47;;;;;;;2.27;1.80;;;13.50;99.90;;;;;;6203245;23;20441;-89
2023/01/02 11:48:22;;;;;;;1.90;1.50;;;13.50;99.90;;;;;;6197290;23;20502;-85
2023/01/02 11:50:49;;;;;;;2.30;2.10;;;13.40;99.90;;;;;;6162138;23;20448;-87
2023/01/02 11:53:28;;;;;;;2.87;2.33;;;13.40;99.90;;;;;;6162546;23;20433;-85
2023/01/02 11:56:03;;;;;;;1.90;1.77;;;13.50;99.90;;;;;;6162337;23;20528;-85
2023/01/02 11:58:47;;;;;;;2.60;1.90;;;13.50;99.90;;;;;;6191471;23;20381;-86
2023/01/02 12:01:36;;;;;;;2.70;1.87;;;13.50;99.90;;;;;;6193161;23;20445;-85
2023/01/02 12:04:04;;;;;;;1.60;1.50;;;13.50;99.90;;;;;;6191340;23;20429;-85
2023/01/02 12:06:56;;;;;;;2.40;1.70;;;13.50;99.90;;;;;;6164649;23;20410;-87
2023/01/02 12:09:42;;;;;;;2.00;1.90;;;13.40;99.90;;;;;;6189918;23;20418;-86
2023/01/02 12:12:28;;;;;;;2.33;2.00;;;13.40;99.90;;;;;;6193302;23;20452;-86
2023/01/02 12:15:23;;;;;;;1.83;1.47;;;13.40;99.90;;;;;;6191988;23;20478;-86
2023/01/02 12:18:01;;;;;;;3.33;1.83;;;13.40;99.90;;;;;;6164694;23;20410;-86
2023/01/02 12:20:45;;;;;;;2.83;1.77;;;13.40;99.90;;;;;;6165698;23;20446;-85
2023/01/02 12:23:39;;;;;;;2.00;1.80;;;13.30;99.90;;;;;;6168201;23;20379;-85
2023/01/02 12:26:14;;;;;;;1.27;1.17;;;13.30;99.90;;;;;;6166108;23;20429;-86
2023/01/02 12:29:10;;;;;;;1.60;1.50;;;13.30;99.90;;;;;;6192993;23;20386;-87
2023/01/02 12:32:12;;;;;;;1.63;1.40;;;13.30;99.90;;;;;;6167251;23;20404;-87
2023/01/02 12:35:13;;;;;;;3.53;1.30;;;13.30;99.90;;;;;;6183325;23;20500;-86
2023/01/02 12:37:51;;;;;;;1.50;1.40;;;13.30;99.90;;;;;;6196032;23;20504;-85
2023/01/02 12:40:43;;;;;;;1.67;1.57;;;13.30;99.90;;;;;;6170062;23;20509;-86
2023/01/02 12:43:47;;;;;;;1.73;1.60;;;13.30;99.90;;;;;;6204643;23;20409;-85
2023/01/02 12:46:32;;;;;;;1.70;1.50;;;13.30;99.90;;;;;;6156131;23;20417;-86
2023/01/02 12:49:28;;;;;;;3.33;1.57;;;13.30;99.90;;;;;;6171058;23;20437;-84
2023/01/02 12:52:32;;;;;;;1.33;1.03;;;13.30;99.90;;;;;;6196183;23;20421;-88
2023/01/02 12:55:30;;;;;;;1.30;1.20;;;13.30;99.90;;;;;;6198486;23;20560;-83
2023/01/02 12:58:20;;;;;;;1.50;1.40;;;13.20;99.90;;;;;;6161275;23;20421;-84
2023/01/02 13:01:11;;;;;;;2.37;1.10;;;13.30;99.90;;;;;;6170038;23;20442;-83
2023/01/02 13:04:00;;;;;;;1.20;1.10;;;13.30;99.90;;;;;;6202388;23;20818;-84
2023/01/02 13:06:33;;;;;;;2.13;1.10;;;13.30;99.90;;;;;;6173876;23;20679;-83
2023/01/02 13:09:21;;;;;;;1.77;1.17;;;13.30;99.90;;;;;;6177492;23;20850;-83
2023/01/02 13:12:14;;;;;;;1.47;0.90;;;13.30;99.90;;;;;;6172265;23;20524;-83
2023/01/02 13:14:57;;;;;;;1.00;1.00;;;13.30;99.90;;;;;;6170331;23;20497;-84
2023/01/02 13:17:48;;;;;;;1.90;1.50;;;13.30;99.90;;;;;;6170058;23;20428;-83
2023/01/02 13:20:30;;;;;;;0.90;0.90;;;13.30;99.90;;;;;;6169627;23;20410;-83
2023/01/02 13:23:18;;;;;;;3.10;1.90;;;13.30;99.90;;;;;;6168927;23;20409;-84
2023/01/02 13:25:48;;;;;;;0.97;0.93;;;13.20;99.90;;;;;;6168924;23;21193;-83
2023/01/02 13:28:21;;;;;;;0.70;0.70;;;13.20;99.90;;;;;;6168998;23;20402;-84
2023/01/02 13:30:52;;;;;;;1.63;1.10;;;13.20;99.90;;;;;;6193965;23;20386;-84